Greenville-Spartanburg International Airport (GSP)

 

Airport Diagram
Current Weather/Forecast (MVFR Conditions)
METAR KGSP 260253Z 00000KT 5SM BR BKN022 OVC031 21/19 A3015 RMK AO2 RAE21 SLP200 P0002 60041 T02060194 51018
TAF KGSP 260159Z 2602/2624 VRB03KT P6SM VCSH BKN020 TEMPO 2602/2604 5SM -SHRA FM260900 06004KT 5SM BR VCSH OVC005 FM261100 07005KT 5SM BR VCSH OVC004 FM261300 07006KT P6SM OVC008 PROB30 2613/2618 4SM -SHRA BR OVC004

All Charts
General
Chart Name Download
AIRPORT DIAGRAM
TAKEOFF MINIMUMS
ALTERNATE MINIMUMS

Departures
Chart Name Download
BIMMR TWO (RNAV)
BWALL TWO (RNAV)

Arrivals
Chart Name Download
JUNNR THREE (RNAV)
MCHLN TWO (RNAV)
RCTOR TWO (RNAV)
WORXS TWO (RNAV)

Approaches
Chart Name Download
ILS OR LOC RWY 04
ILS OR LOC RWY 22
ILS RWY 04 (SA CAT I)
ILS RWY 04 (CAT II - III)
RNAV (GPS) RWY 04
RNAV (GPS) RWY 22


Inbound Traffic (Arrivals)

No inbound traffic.


Outbound Traffic (Departures)

No outbound traffic.